sensor_id;sensor_type;location;lat;lon;timestamp;P1;durP1;ratioP1;P2;durP2;ratioP2
21624;SDS011;10974;51.034;3.744;2022-07-21T00:02:28;1.40;;;1.30;;
21624;SDS011;10974;51.034;3.744;2022-07-21T00:04:54;1.90;;;1.63;;
21624;SDS011;10974;51.034;3.744;2022-07-21T00:07:20;2.30;;;1.20;;
21624;SDS011;10974;51.034;3.744;2022-07-21T00:09:45;1.30;;;1.20;;
21624;SDS011;10974;51.034;3.744;2022-07-21T00:12:11;1.30;;;1.20;;
21624;SDS011;10974;51.034;3.744;2022-07-21T00:14:37;1.20;;;1.10;;
21624;SDS011;10974;51.034;3.744;2022-07-21T00:17:02;1.53;;;1.43;;
21624;SDS011;10974;51.034;3.744;2022-07-21T00:19:28;1.33;;;1.10;;
21624;SDS011;10974;51.034;3.744;2022-07-21T00:21:54;1.40;;;1.30;;
21624;SDS011;10974;51.034;3.744;2022-07-21T00:24:20;1.73;;;1.30;;
21624;SDS011;10974;51.034;3.744;2022-07-21T00:26:46;1.70;;;1.50;;
21624;SDS011;10974;51.034;3.744;2022-07-21T00:29:11;1.50;;;1.23;;
21624;SDS011;10974;51.034;3.744;2022-07-21T00:31:37;1.40;;;1.30;;
21624;SDS011;10974;51.034;3.744;2022-07-21T00:34:02;1.50;;;1.40;;
21624;SDS011;10974;51.034;3.744;2022-07-21T00:36:28;1.60;;;1.50;;
21624;SDS011;10974;51.034;3.744;2022-07-21T00:38:54;1.60;;;1.30;;
21624;SDS011;10974;51.034;3.744;2022-07-21T00:41:19;1.60;;;1.50;;
21624;SDS011;10974;51.034;3.744;2022-07-21T00:43:45;1.53;;;1.43;;
21624;SDS011;10974;51.034;3.744;2022-07-21T00:46:11;1.57;;;1.47;;
21624;SDS011;10974;51.034;3.744;2022-07-21T00:48:36;1.57;;;1.47;;
21624;SDS011;10974;51.034;3.744;2022-07-21T00:51:02;1.40;;;1.30;;
21624;SDS011;10974;51.034;3.744;2022-07-21T00:53:28;2.23;;;2.00;;
21624;SDS011;10974;51.034;3.744;2022-07-21T00:55:54;1.97;;;1.40;;
21624;SDS011;10974;51.034;3.744;2022-07-21T00:58:20;2.23;;;1.70;;
21624;SDS011;10974;51.034;3.744;2022-07-21T01:00:47;1.73;;;1.63;;
21624;SDS011;10974;51.034;3.744;2022-07-21T01:03:13;1.70;;;1.60;;
21624;SDS011;10974;51.034;3.744;2022-07-21T01:05:39;2.77;;;1.90;;
21624;SDS011;10974;51.034;3.744;2022-07-21T01:08:04;1.53;;;1.40;;
21624;SDS011;10974;51.034;3.744;2022-07-21T01:10:31;1.83;;;1.70;;
21624;SDS011;10974;51.034;3.744;2022-07-21T01:12:58;1.90;;;1.70;;
21624;SDS011;10974;51.034;3.744;2022-07-21T01:15:25;2.33;;;1.50;;
21624;SDS011;10974;51.034;3.744;2022-07-21T01:17:51;1.63;;;1.30;;
21624;SDS011;10974;51.034;3.744;2022-07-21T01:20:18;3.20;;;1.40;;
21624;SDS011;10974;51.034;3.744;2022-07-21T01:22:47;2.90;;;1.60;;
21624;SDS011;10974;51.034;3.744;2022-07-21T01:25:16;1.70;;;1.60;;
21624;SDS011;10974;51.034;3.744;2022-07-21T01:27:43;1.67;;;1.50;;
21624;SDS011;10974;51.034;3.744;2022-07-21T01:30:09;1.70;;;1.60;;
21624;SDS011;10974;51.034;3.744;2022-07-21T01:32:36;2.77;;;1.80;;
21624;SDS011;10974;51.034;3.744;2022-07-21T01:35:04;1.80;;;1.70;;
21624;SDS011;10974;51.034;3.744;2022-07-21T01:37:30;2.53;;;1.70;;
21624;SDS011;10974;51.034;3.744;2022-07-21T01:39:57;1.67;;;1.57;;
21624;SDS011;10974;51.034;3.744;2022-07-21T01:42:41;3.13;;;1.90;;
21624;SDS011;10974;51.034;3.744;2022-07-21T01:45:06;2.93;;;1.43;;
21624;SDS011;10974;51.034;3.744;2022-07-21T01:47:33;2.10;;;1.63;;
21624;SDS011;10974;51.034;3.744;2022-07-21T01:50:00;1.60;;;1.50;;
21624;SDS011;10974;51.034;3.744;2022-07-21T01:52:26;1.63;;;1.53;;
21624;SDS011;10974;51.034;3.744;2022-07-21T01:54:51;2.23;;;1.40;;
21624;SDS011;10974;51.034;3.744;2022-07-21T01:57:17;1.80;;;1.63;;
21624;SDS011;10974;51.034;3.744;2022-07-21T01:59:43;1.60;;;1.50;;
21624;SDS011;10974;51.034;3.744;2022-07-21T02:02:09;3.30;;;1.70;;
21624;SDS011;10974;51.034;3.744;2022-07-21T02:04:35;1.63;;;1.50;;
21624;SDS011;10974;51.034;3.744;2022-07-21T02:07:01;2.17;;;1.97;;
21624;SDS011;10974;51.034;3.744;2022-07-21T02:09:28;2.03;;;1.83;;
21624;SDS011;10974;51.034;3.744;2022-07-21T02:11:53;2.23;;;1.80;;
21624;SDS011;10974;51.034;3.744;2022-07-21T02:14:19;1.80;;;1.70;;
21624;SDS011;10974;51.034;3.744;2022-07-21T02:16:45;1.73;;;1.63;;
21624;SDS011;10974;51.034;3.744;2022-07-21T02:19:11;2.00;;;1.60;;
21624;SDS011;10974;51.034;3.744;2022-07-21T02:21:36;2.30;;;1.63;;
21624;SDS011;10974;51.034;3.744;2022-07-21T02:24:02;1.53;;;1.40;;
21624;SDS011;10974;51.034;3.744;2022-07-21T02:26:28;1.60;;;1.50;;
21624;SDS011;10974;51.034;3.744;2022-07-21T02:28:54;1.57;;;1.47;;
21624;SDS011;10974;51.034;3.744;2022-07-21T02:31:19;2.13;;;1.30;;
21624;SDS011;10974;51.034;3.744;2022-07-21T02:33:45;1.60;;;1.50;;
21624;SDS011;10974;51.034;3.744;2022-07-21T02:36:10;2.13;;;1.70;;
21624;SDS011;10974;51.034;3.744;2022-07-21T02:38:36;3.67;;;1.93;;
21624;SDS011;10974;51.034;3.744;2022-07-21T02:41:02;1.30;;;1.20;;
21624;SDS011;10974;51.034;3.744;2022-07-21T02:43:28;1.93;;;1.70;;
21624;SDS011;10974;51.034;3.744;2022-07-21T02:45:54;1.53;;;1.40;;
21624;SDS011;10974;51.034;3.744;2022-07-21T02:48:20;2.10;;;1.60;;
21624;SDS011;10974;51.034;3.744;2022-07-21T02:50:45;2.00;;;1.70;;
21624;SDS011;10974;51.034;3.744;2022-07-21T02:53:12;1.70;;;1.60;;
21624;SDS011;10974;51.034;3.744;2022-07-21T02:55:43;2.10;;;1.67;;
21624;SDS011;10974;51.034;3.744;2022-07-21T02:58:13;3.33;;;1.50;;
21624;SDS011;10974;51.034;3.744;2022-07-21T03:00:44;1.87;;;1.70;;
21624;SDS011;10974;51.034;3.744;2022-07-21T03:03:14;2.97;;;1.50;;
21624;SDS011;10974;51.034;3.744;2022-07-21T03:05:40;1.90;;;1.73;;
21624;SDS011;10974;51.034;3.744;2022-07-21T03:08:06;1.77;;;1.47;;
21624;SDS011;10974;51.034;3.744;2022-07-21T03:10:34;1.73;;;1.63;;
21624;SDS011;10974;51.034;3.744;2022-07-21T03:13:00;2.37;;;1.50;;
21624;SDS011;10974;51.034;3.744;2022-07-21T03:15:26;1.40;;;1.30;;
21624;SDS011;10974;51.034;3.744;2022-07-21T03:17:53;1.33;;;1.23;;
21624;SDS011;10974;51.034;3.744;2022-07-21T03:20:19;1.50;;;1.40;;
21624;SDS011;10974;51.034;3.744;2022-07-21T03:22:46;1.43;;;1.10;;
21624;SDS011;10974;51.034;3.744;2022-07-21T03:25:12;1.77;;;1.67;;
21624;SDS011;10974;51.034;3.744;2022-07-21T03:27:38;1.27;;;1.17;;
21624;SDS011;10974;51.034;3.744;2022-07-21T03:30:05;1.43;;;1.33;;
21624;SDS011;10974;51.034;3.744;2022-07-21T03:32:32;1.50;;;1.30;;
21624;SDS011;10974;51.034;3.744;2022-07-21T03:34:58;1.27;;;1.17;;
21624;SDS011;10974;51.034;3.744;2022-07-21T03:37:23;1.40;;;1.30;;
21624;SDS011;10974;51.034;3.744;2022-07-21T03:39:50;1.30;;;1.20;;
21624;SDS011;10974;51.034;3.744;2022-07-21T03:42:15;1.30;;;1.20;;
21624;SDS011;10974;51.034;3.744;2022-07-21T03:44:41;2.10;;;1.67;;
21624;SDS011;10974;51.034;3.744;2022-07-21T03:47:06;1.33;;;1.23;;
21624;SDS011;10974;51.034;3.744;2022-07-21T03:49:32;1.20;;;1.10;;
21624;SDS011;10974;51.034;3.744;2022-07-21T03:51:58;1.30;;;1.20;;
21624;SDS011;10974;51.034;3.744;2022-07-21T03:54:23;1.53;;;1.43;;
21624;SDS011;10974;51.034;3.744;2022-07-21T03:56:50;1.47;;;1.37;;
21624;SDS011;10974;51.034;3.744;2022-07-21T03:59:16;1.67;;;1.57;;
21624;SDS011;10974;51.034;3.744;2022-07-21T04:01:42;1.50;;;1.37;;
21624;SDS011;10974;51.034;3.744;2022-07-21T04:04:08;1.10;;;1.10;;
21624;SDS011;10974;51.034;3.744;2022-07-21T04:06:34;1.23;;;1.20;;
21624;SDS011;10974;51.034;3.744;2022-07-21T04:09:00;1.40;;;1.30;;
21624;SDS011;10974;51.034;3.744;2022-07-21T04:11:25;1.70;;;1.60;;
21624;SDS011;10974;51.034;3.744;2022-07-21T04:13:51;1.60;;;1.50;;
21624;SDS011;10974;51.034;3.744;2022-07-21T04:16:17;1.50;;;1.40;;
21624;SDS011;10974;51.034;3.744;2022-07-21T04:18:42;1.80;;;1.70;;
21624;SDS011;10974;51.034;3.744;2022-07-21T04:21:08;1.50;;;1.40;;
21624;SDS011;10974;51.034;3.744;2022-07-21T04:23:34;2.13;;;1.90;;
21624;SDS011;10974;51.034;3.744;2022-07-21T04:25:59;1.73;;;1.63;;
21624;SDS011;10974;51.034;3.744;2022-07-21T04:28:25;1.70;;;1.60;;
21624;SDS011;10974;51.034;3.744;2022-07-21T04:30:51;1.83;;;1.70;;
21624;SDS011;10974;51.034;3.744;2022-07-21T04:33:17;1.83;;;1.73;;
21624;SDS011;10974;51.034;3.744;2022-07-21T04:35:42;1.80;;;1.70;;
21624;SDS011;10974;51.034;3.744;2022-07-21T04:38:08;2.70;;;1.90;;
21624;SDS011;10974;51.034;3.744;2022-07-21T04:40:34;2.70;;;2.50;;
21624;SDS011;10974;51.034;3.744;2022-07-21T04:43:01;2.40;;;2.17;;
21624;SDS011;10974;51.034;3.744;2022-07-21T04:45:27;2.43;;;2.23;;
21624;SDS011;10974;51.034;3.744;2022-07-21T04:47:54;2.20;;;2.03;;
21624;SDS011;10974;51.034;3.744;2022-07-21T04:50:24;2.80;;;2.30;;
21624;SDS011;10974;51.034;3.744;2022-07-21T04:52:51;2.50;;;2.30;;
21624;SDS011;10974;51.034;3.744;2022-07-21T04:55:18;2.67;;;2.47;;
21624;SDS011;10974;51.034;3.744;2022-07-21T04:57:47;2.83;;;2.50;;
21624;SDS011;10974;51.034;3.744;2022-07-21T05:00:19;3.03;;;2.77;;
21624;SDS011;10974;51.034;3.744;2022-07-21T05:02:46;3.00;;;2.57;;
21624;SDS011;10974;51.034;3.744;2022-07-21T05:05:12;2.70;;;2.50;;
21624;SDS011;10974;51.034;3.744;2022-07-21T05:07:38;2.63;;;2.43;;
21624;SDS011;10974;51.034;3.744;2022-07-21T05:10:05;2.37;;;2.20;;
21624;SDS011;10974;51.034;3.744;2022-07-21T05:12:34;2.90;;;2.60;;
21624;SDS011;10974;51.034;3.744;2022-07-21T05:15:00;2.20;;;2.07;;
21624;SDS011;10974;51.034;3.744;2022-07-21T05:17:26;2.87;;;2.53;;
21624;SDS011;10974;51.034;3.744;2022-07-21T05:19:52;2.83;;;2.63;;
21624;SDS011;10974;51.034;3.744;2022-07-21T05:22:18;3.27;;;2.90;;
21624;SDS011;10974;51.034;3.744;2022-07-21T05:24:44;3.00;;;2.53;;
21624;SDS011;10974;51.034;3.744;2022-07-21T05:27:10;2.77;;;2.57;;
21624;SDS011;10974;51.034;3.744;2022-07-21T05:29:36;2.70;;;2.50;;
21624;SDS011;10974;51.034;3.744;2022-07-21T05:32:02;2.60;;;2.40;;
21624;SDS011;10974;51.034;3.744;2022-07-21T05:34:27;3.40;;;2.50;;
21624;SDS011;10974;51.034;3.744;2022-07-21T05:36:54;2.60;;;2.40;;
21624;SDS011;10974;51.034;3.744;2022-07-21T05:39:20;3.10;;;2.50;;
21624;SDS011;10974;51.034;3.744;2022-07-21T05:41:46;2.90;;;2.60;;
21624;SDS011;10974;51.034;3.744;2022-07-21T05:44:12;2.77;;;2.53;;
21624;SDS011;10974;51.034;3.744;2022-07-21T05:46:38;2.70;;;2.33;;
21624;SDS011;10974;51.034;3.744;2022-07-21T05:49:03;2.70;;;2.50;;
21624;SDS011;10974;51.034;3.744;2022-07-21T05:51:29;3.13;;;2.50;;
21624;SDS011;10974;51.034;3.744;2022-07-21T05:53:55;2.30;;;2.10;;
21624;SDS011;10974;51.034;3.744;2022-07-21T05:56:22;2.10;;;2.00;;
21624;SDS011;10974;51.034;3.744;2022-07-21T05:58:47;15.10;;;13.60;;
21624;SDS011;10974;51.034;3.744;2022-07-21T06:01:13;14.00;;;12.50;;
21624;SDS011;10974;51.034;3.744;2022-07-21T06:03:41;16.00;;;13.20;;
21624;SDS011;10974;51.034;3.744;2022-07-21T06:06:12;14.50;;;13.07;;
21624;SDS011;10974;51.034;3.744;2022-07-21T06:08:39;13.17;;;11.87;;
21624;SDS011;10974;51.034;3.744;2022-07-21T06:11:07;13.03;;;11.73;;
21624;SDS011;10974;51.034;3.744;2022-07-21T06:13:34;14.20;;;12.70;;
21624;SDS011;10974;51.034;3.744;2022-07-21T06:16:00;13.67;;;12.23;;
21624;SDS011;10974;51.034;3.744;2022-07-21T06:18:26;13.60;;;12.20;;
21624;SDS011;10974;51.034;3.744;2022-07-21T06:20:52;12.63;;;11.30;;
21624;SDS011;10974;51.034;3.744;2022-07-21T06:23:18;12.47;;;11.17;;
21624;SDS011;10974;51.034;3.744;2022-07-21T06:25:43;13.50;;;11.27;;
21624;SDS011;10974;51.034;3.744;2022-07-21T06:28:09;13.10;;;11.80;;
21624;SDS011;10974;51.034;3.744;2022-07-21T06:30:35;11.83;;;10.63;;
21624;SDS011;10974;51.034;3.744;2022-07-21T06:33:01;12.67;;;11.27;;
21624;SDS011;10974;51.034;3.744;2022-07-21T06:35:27;11.70;;;10.50;;
21624;SDS011;10974;51.034;3.744;2022-07-21T06:37:53;11.53;;;10.33;;
21624;SDS011;10974;51.034;3.744;2022-07-21T06:40:18;11.40;;;9.73;;
21624;SDS011;10974;51.034;3.744;2022-07-21T06:42:44;11.33;;;10.23;;
21624;SDS011;10974;51.034;3.744;2022-07-21T06:45:10;11.43;;;10.13;;
21624;SDS011;10974;51.034;3.744;2022-07-21T06:47:36;11.87;;;10.67;;
21624;SDS011;10974;51.034;3.744;2022-07-21T06:50:02;10.57;;;9.57;;
21624;SDS011;10974;51.034;3.744;2022-07-21T06:52:29;10.60;;;9.60;;
21624;SDS011;10974;51.034;3.744;2022-07-21T06:54:55;10.13;;;8.97;;
21624;SDS011;10974;51.034;3.744;2022-07-21T06:57:22;9.67;;;8.77;;
21624;SDS011;10974;51.034;3.744;2022-07-21T06:59:47;11.23;;;9.20;;
21624;SDS011;10974;51.034;3.744;2022-07-21T07:02:13;9.80;;;8.90;;
21624;SDS011;10974;51.034;3.744;2022-07-21T07:04:39;9.07;;;8.17;;
21624;SDS011;10974;51.034;3.744;2022-07-21T07:07:05;8.87;;;7.97;;
21624;SDS011;10974;51.034;3.744;2022-07-21T07:09:31;9.23;;;7.53;;
21624;SDS011;10974;51.034;3.744;2022-07-21T07:11:56;8.43;;;7.53;;
21624;SDS011;10974;51.034;3.744;2022-07-21T07:14:29;9.10;;;6.97;;
21624;SDS011;10974;51.034;3.744;2022-07-21T07:16:55;7.20;;;6.50;;
21624;SDS011;10974;51.034;3.744;2022-07-21T07:19:20;7.37;;;6.67;;
21624;SDS011;10974;51.034;3.744;2022-07-21T07:21:46;6.67;;;6.07;;
21624;SDS011;10974;51.034;3.744;2022-07-21T07:24:12;6.63;;;5.93;;
21624;SDS011;10974;51.034;3.744;2022-07-21T07:26:37;8.00;;;6.20;;
21624;SDS011;10974;51.034;3.744;2022-07-21T07:29:03;5.80;;;5.30;;
21624;SDS011;10974;51.034;3.744;2022-07-21T07:31:29;6.63;;;6.03;;
21624;SDS011;10974;51.034;3.744;2022-07-21T07:33:54;6.87;;;6.03;;
21624;SDS011;10974;51.034;3.744;2022-07-21T07:36:22;5.47;;;4.70;;
21624;SDS011;10974;51.034;3.744;2022-07-21T07:38:52;5.97;;;4.87;;
21624;SDS011;10974;51.034;3.744;2022-07-21T07:41:18;5.77;;;5.17;;
21624;SDS011;10974;51.034;3.744;2022-07-21T07:43:45;5.80;;;5.20;;
21624;SDS011;10974;51.034;3.744;2022-07-21T07:46:11;5.97;;;5.23;;
21624;SDS011;10974;51.034;3.744;2022-07-21T07:48:38;5.33;;;4.83;;
21624;SDS011;10974;51.034;3.744;2022-07-21T07:51:05;5.23;;;4.73;;
21624;SDS011;10974;51.034;3.744;2022-07-21T07:53:31;6.07;;;5.50;;
21624;SDS011;10974;51.034;3.744;2022-07-21T07:55:57;6.20;;;4.77;;
21624;SDS011;10974;51.034;3.744;2022-07-21T07:58:23;5.50;;;4.90;;
21624;SDS011;10974;51.034;3.744;2022-07-21T08:00:49;5.00;;;4.50;;
21624;SDS011;10974;51.034;3.744;2022-07-21T08:03:14;4.80;;;4.40;;
21624;SDS011;10974;51.034;3.744;2022-07-21T08:05:40;5.07;;;4.67;;
21624;SDS011;10974;51.034;3.744;2022-07-21T08:08:06;5.37;;;4.87;;
21624;SDS011;10974;51.034;3.744;2022-07-21T08:10:32;5.10;;;4.60;;
21624;SDS011;10974;51.034;3.744;2022-07-21T08:12:57;4.40;;;4.00;;
21624;SDS011;10974;51.034;3.744;2022-07-21T08:15:23;6.60;;;5.27;;
21624;SDS011;10974;51.034;3.744;2022-07-21T08:17:49;3.93;;;3.27;;
21624;SDS011;10974;51.034;3.744;2022-07-21T08:20:15;4.10;;;3.80;;
21624;SDS011;10974;51.034;3.744;2022-07-21T08:22:40;4.57;;;4.10;;
21624;SDS011;10974;51.034;3.744;2022-07-21T08:25:06;3.80;;;3.50;;
21624;SDS011;10974;51.034;3.744;2022-07-21T08:27:32;3.80;;;3.50;;
21624;SDS011;10974;51.034;3.744;2022-07-21T08:29:58;3.77;;;3.40;;
21624;SDS011;10974;51.034;3.744;2022-07-21T08:32:24;3.90;;;3.60;;
21624;SDS011;10974;51.034;3.744;2022-07-21T08:34:49;4.60;;;3.73;;
21624;SDS011;10974;51.034;3.744;2022-07-21T08:37:15;4.13;;;3.53;;
21624;SDS011;10974;51.034;3.744;2022-07-21T08:39:43;3.67;;;3.30;;
21624;SDS011;10974;51.034;3.744;2022-07-21T08:42:09;3.83;;;3.50;;
21624;SDS011;10974;51.034;3.744;2022-07-21T08:44:38;4.00;;;3.63;;
21624;SDS011;10974;51.034;3.744;2022-07-21T08:47:04;5.37;;;4.10;;
21624;SDS011;10974;51.034;3.744;2022-07-21T08:49:31;4.03;;;3.67;;
21624;SDS011;10974;51.034;3.744;2022-07-21T08:52:02;3.90;;;3.60;;
21624;SDS011;10974;51.034;3.744;2022-07-21T08:54:31;3.70;;;3.40;;
21624;SDS011;10974;51.034;3.744;2022-07-21T08:56:57;4.00;;;3.50;;
21624;SDS011;10974;51.034;3.744;2022-07-21T08:59:23;3.83;;;3.50;;
21624;SDS011;10974;51.034;3.744;2022-07-21T09:01:49;4.03;;;3.70;;
21624;SDS011;10974;51.034;3.744;2022-07-21T09:04:25;4.37;;;3.97;;
21624;SDS011;10974;51.034;3.744;2022-07-21T09:06:57;7.10;;;4.30;;
21624;SDS011;10974;51.034;3.744;2022-07-21T09:09:25;5.00;;;4.10;;
21624;SDS011;10974;51.034;3.744;2022-07-21T09:11:52;4.80;;;4.20;;
21624;SDS011;10974;51.034;3.744;2022-07-21T09:14:20;5.33;;;4.00;;
21624;SDS011;10974;51.034;3.744;2022-07-21T09:16:48;5.57;;;4.10;;
21624;SDS011;10974;51.034;3.744;2022-07-21T09:19:32;4.30;;;3.90;;
21624;SDS011;10974;51.034;3.744;2022-07-21T09:22:11;4.70;;;4.20;;
21624;SDS011;10974;51.034;3.744;2022-07-21T09:24:39;4.90;;;3.63;;
21624;SDS011;10974;51.034;3.744;2022-07-21T09:27:12;5.00;;;4.13;;
21624;SDS011;10974;51.034;3.744;2022-07-21T09:29:43;4.43;;;4.03;;
21624;SDS011;10974;51.034;3.744;2022-07-21T09:32:16;4.60;;;3.90;;
21624;SDS011;10974;51.034;3.744;2022-07-21T09:34:52;5.10;;;3.30;;
21624;SDS011;10974;51.034;3.744;2022-07-21T09:37:29;4.10;;;3.70;;
21624;SDS011;10974;51.034;3.744;2022-07-21T09:39:56;6.43;;;3.87;;
21624;SDS011;10974;51.034;3.744;2022-07-21T09:42:26;3.93;;;3.53;;
21624;SDS011;10974;51.034;3.744;2022-07-21T09:44:57;3.67;;;3.30;;
21624;SDS011;10974;51.034;3.744;2022-07-21T09:47:25;3.90;;;3.60;;
21624;SDS011;10974;51.034;3.744;2022-07-21T09:49:54;4.90;;;3.70;;
21624;SDS011;10974;51.034;3.744;2022-07-21T09:52:42;4.00;;;3.60;;
21624;SDS011;10974;51.034;3.744;2022-07-21T09:55:11;5.07;;;3.70;;
21624;SDS011;10974;51.034;3.744;2022-07-21T09:57:39;3.93;;;3.40;;
21624;SDS011;10974;51.034;3.744;2022-07-21T10:00:06;2.90;;;2.70;;
21624;SDS011;10974;51.034;3.744;2022-07-21T10:02:34;3.93;;;2.77;;
21624;SDS011;10974;51.034;3.744;2022-07-21T10:07:31;3.07;;;2.50;;
21624;SDS011;10974;51.034;3.744;2022-07-21T10:09:58;2.50;;;2.30;;
21624;SDS011;10974;51.034;3.744;2022-07-21T10:12:25;2.80;;;2.60;;
21624;SDS011;10974;51.034;3.744;2022-07-21T10:14:52;2.87;;;2.60;;
21624;SDS011;10974;51.034;3.744;2022-07-21T10:17:19;2.70;;;2.50;;
21624;SDS011;10974;51.034;3.744;2022-07-21T10:25:30;2.30;;;2.20;;
21624;SDS011;10974;51.034;3.744;2022-07-21T10:30:47;2.23;;;2.03;;
21624;SDS011;10974;51.034;3.744;2022-07-21T10:33:15;2.60;;;2.30;;
21624;SDS011;10974;51.034;3.744;2022-07-21T10:35:48;2.30;;;2.20;;
21624;SDS011;10974;51.034;3.744;2022-07-21T10:38:31;2.57;;;2.27;;
21624;SDS011;10974;51.034;3.744;2022-07-21T10:40:59;2.03;;;1.93;;
21624;SDS011;10974;51.034;3.744;2022-07-21T10:45:52;2.00;;;1.90;;
21624;SDS011;10974;51.034;3.744;2022-07-21T10:51:07;2.00;;;1.80;;
21624;SDS011;10974;51.034;3.744;2022-07-21T10:53:35;2.37;;;2.20;;
21624;SDS011;10974;51.034;3.744;2022-07-21T10:56:01;2.00;;;1.90;;
21624;SDS011;10974;51.034;3.744;2022-07-21T10:58:34;2.30;;;2.10;;
21624;SDS011;10974;51.034;3.744;2022-07-21T11:03:33;1.90;;;1.80;;
21624;SDS011;10974;51.034;3.744;2022-07-21T11:08:38;1.83;;;1.73;;
21624;SDS011;10974;51.034;3.744;2022-07-21T11:11:07;2.00;;;1.90;;
21624;SDS011;10974;51.034;3.744;2022-07-21T11:19:31;2.60;;;2.40;;
21624;SDS011;10974;51.034;3.744;2022-07-21T11:22:22;1.93;;;1.83;;
21624;SDS011;10974;51.034;3.744;2022-07-21T11:24:58;1.77;;;1.67;;
21624;SDS011;10974;51.034;3.744;2022-07-21T11:27:25;2.40;;;2.30;;
21624;SDS011;10974;51.034;3.744;2022-07-21T11:29:53;2.33;;;2.13;;
21624;SDS011;10974;51.034;3.744;2022-07-21T11:32:22;1.90;;;1.80;;
21624;SDS011;10974;51.034;3.744;2022-07-21T11:34:52;2.00;;;1.90;;
21624;SDS011;10974;51.034;3.744;2022-07-21T11:37:36;1.70;;;1.60;;
21624;SDS011;10974;51.034;3.744;2022-07-21T11:40:13;2.00;;;1.80;;
21624;SDS011;10974;51.034;3.744;2022-07-21T11:42:40;1.97;;;1.87;;
21624;SDS011;10974;51.034;3.744;2022-07-21T11:45:07;2.00;;;1.90;;
21624;SDS011;10974;51.034;3.744;2022-07-21T11:47:34;1.93;;;1.83;;
21624;SDS011;10974;51.034;3.744;2022-07-21T11:50:01;2.20;;;2.00;;
21624;SDS011;10974;51.034;3.744;2022-07-21T11:52:30;2.10;;;1.90;;
21624;SDS011;10974;51.034;3.744;2022-07-21T11:54:59;2.50;;;1.73;;
21624;SDS011;10974;51.034;3.744;2022-07-21T11:57:26;1.80;;;1.70;;
21624;SDS011;10974;51.034;3.744;2022-07-21T11:59:53;2.17;;;1.97;;
21624;SDS011;10974;51.034;3.744;2022-07-21T12:04:51;1.43;;;1.33;;
21624;SDS011;10974;51.034;3.744;2022-07-21T12:07:31;1.50;;;1.40;;
21624;SDS011;10974;51.034;3.744;2022-07-21T12:10:07;1.70;;;1.60;;
21624;SDS011;10974;51.034;3.744;2022-07-21T12:12:39;1.70;;;1.60;;
21624;SDS011;10974;51.034;3.744;2022-07-21T12:15:19;2.00;;;1.90;;
21624;SDS011;10974;51.034;3.744;2022-07-21T12:17:53;1.80;;;1.67;;
21624;SDS011;10974;51.034;3.744;2022-07-21T12:22:59;2.27;;;2.10;;
21624;SDS011;10974;51.034;3.744;2022-07-21T12:25:36;2.33;;;2.10;;
21624;SDS011;10974;51.034;3.744;2022-07-21T12:28:04;1.90;;;1.80;;
21624;SDS011;10974;51.034;3.744;2022-07-21T12:30:33;2.17;;;2.00;;
21624;SDS011;10974;51.034;3.744;2022-07-21T12:35:59;2.10;;;1.90;;
21624;SDS011;10974;51.034;3.744;2022-07-21T12:38:39;2.10;;;1.90;;
21624;SDS011;10974;51.034;3.744;2022-07-21T12:41:10;2.00;;;1.80;;
21624;SDS011;10974;51.034;3.744;2022-07-21T12:43:52;3.40;;;2.30;;
21624;SDS011;10974;51.034;3.744;2022-07-21T12:46:33;2.10;;;1.90;;
21624;SDS011;10974;51.034;3.744;2022-07-21T12:49:06;2.40;;;2.20;;
21624;SDS011;10974;51.034;3.744;2022-07-21T12:51:34;3.70;;;2.13;;
21624;SDS011;10974;51.034;3.744;2022-07-21T12:54:01;2.30;;;2.10;;
21624;SDS011;10974;51.034;3.744;2022-07-21T12:56:28;1.97;;;1.87;;
21624;SDS011;10974;51.034;3.744;2022-07-21T12:58:58;2.50;;;2.30;;
21624;SDS011;10974;51.034;3.744;2022-07-21T13:01:25;2.03;;;1.83;;
21624;SDS011;10974;51.034;3.744;2022-07-21T13:03:52;2.33;;;2.13;;
21624;SDS011;10974;51.034;3.744;2022-07-21T13:06:19;2.27;;;2.00;;
21624;SDS011;10974;51.034;3.744;2022-07-21T13:08:45;2.23;;;2.00;;
21624;SDS011;10974;51.034;3.744;2022-07-21T13:11:13;2.20;;;2.00;;
21624;SDS011;10974;51.034;3.744;2022-07-21T13:13:41;2.20;;;2.10;;
21624;SDS011;10974;51.034;3.744;2022-07-21T13:16:07;2.30;;;2.10;;
21624;SDS011;10974;51.034;3.744;2022-07-21T13:18:33;2.03;;;1.93;;
21624;SDS011;10974;51.034;3.744;2022-07-21T13:20:59;2.70;;;2.30;;
21624;SDS011;10974;51.034;3.744;2022-07-21T13:23:27;2.00;;;1.90;;
21624;SDS011;10974;51.034;3.744;2022-07-21T13:25:52;2.10;;;2.00;;
21624;SDS011;10974;51.034;3.744;2022-07-21T13:28:18;2.80;;;2.30;;
21624;SDS011;10974;51.034;3.744;2022-07-21T13:30:44;2.90;;;2.20;;
21624;SDS011;10974;51.034;3.744;2022-07-21T13:33:11;1.80;;;1.70;;
21624;SDS011;10974;51.034;3.744;2022-07-21T13:35:37;2.10;;;2.00;;
21624;SDS011;10974;51.034;3.744;2022-07-21T13:38:03;2.07;;;1.87;;
21624;SDS011;10974;51.034;3.744;2022-07-21T13:40:29;2.73;;;2.53;;
21624;SDS011;10974;51.034;3.744;2022-07-21T13:42:55;2.00;;;1.90;;
21624;SDS011;10974;51.034;3.744;2022-07-21T13:45:21;2.43;;;2.23;;
21624;SDS011;10974;51.034;3.744;2022-07-21T13:47:46;1.70;;;1.60;;
21624;SDS011;10974;51.034;3.744;2022-07-21T13:50:12;2.30;;;2.10;;
21624;SDS011;10974;51.034;3.744;2022-07-21T13:52:38;1.80;;;1.70;;
21624;SDS011;10974;51.034;3.744;2022-07-21T13:55:06;1.90;;;1.80;;
21624;SDS011;10974;51.034;3.744;2022-07-21T13:57:33;1.90;;;1.80;;
21624;SDS011;10974;51.034;3.744;2022-07-21T13:59:59;1.83;;;1.73;;
21624;SDS011;10974;51.034;3.744;2022-07-21T14:02:25;2.17;;;2.03;;
21624;SDS011;10974;51.034;3.744;2022-07-21T14:04:51;2.30;;;2.10;;
21624;SDS011;10974;51.034;3.744;2022-07-21T14:07:16;2.67;;;2.20;;
21624;SDS011;10974;51.034;3.744;2022-07-21T14:09:42;2.30;;;2.10;;
21624;SDS011;10974;51.034;3.744;2022-07-21T14:12:09;1.70;;;1.60;;
21624;SDS011;10974;51.034;3.744;2022-07-21T14:14:38;2.07;;;1.87;;
21624;SDS011;10974;51.034;3.744;2022-07-21T14:17:04;2.50;;;2.30;;
21624;SDS011;10974;51.034;3.744;2022-07-21T14:19:30;1.70;;;1.60;;
21624;SDS011;10974;51.034;3.744;2022-07-21T14:21:55;2.13;;;1.93;;
21624;SDS011;10974;51.034;3.744;2022-07-21T14:24:21;1.90;;;1.67;;
21624;SDS011;10974;51.034;3.744;2022-07-21T14:27:06;1.90;;;1.80;;
21624;SDS011;10974;51.034;3.744;2022-07-21T14:29:31;2.07;;;1.90;;
21624;SDS011;10974;51.034;3.744;2022-07-21T14:31:57;1.90;;;1.80;;
21624;SDS011;10974;51.034;3.744;2022-07-21T14:34:23;1.90;;;1.80;;
21624;SDS011;10974;51.034;3.744;2022-07-21T14:36:49;1.97;;;1.80;;
21624;SDS011;10974;51.034;3.744;2022-07-21T14:39:16;2.13;;;1.93;;
21624;SDS011;10974;51.034;3.744;2022-07-21T14:41:43;2.10;;;1.90;;
21624;SDS011;10974;51.034;3.744;2022-07-21T14:44:09;1.90;;;1.80;;
21624;SDS011;10974;51.034;3.744;2022-07-21T14:46:36;1.83;;;1.73;;
21624;SDS011;10974;51.034;3.744;2022-07-21T14:49:02;2.00;;;1.90;;
21624;SDS011;10974;51.034;3.744;2022-07-21T14:51:27;2.10;;;1.90;;
21624;SDS011;10974;51.034;3.744;2022-07-21T14:53:53;1.90;;;1.70;;
21624;SDS011;10974;51.034;3.744;2022-07-21T14:56:19;1.90;;;1.80;;
21624;SDS011;10974;51.034;3.744;2022-07-21T14:58:44;2.50;;;2.00;;
21624;SDS011;10974;51.034;3.744;2022-07-21T15:01:10;1.70;;;1.60;;
21624;SDS011;10974;51.034;3.744;2022-07-21T15:03:36;1.70;;;1.60;;
21624;SDS011;10974;51.034;3.744;2022-07-21T15:06:02;1.77;;;1.60;;
21624;SDS011;10974;51.034;3.744;2022-07-21T15:08:29;1.50;;;1.40;;
21624;SDS011;10974;51.034;3.744;2022-07-21T15:10:55;1.80;;;1.70;;
21624;SDS011;10974;51.034;3.744;2022-07-21T15:13:21;1.50;;;1.40;;
21624;SDS011;10974;51.034;3.744;2022-07-21T15:15:47;1.50;;;1.40;;
21624;SDS011;10974;51.034;3.744;2022-07-21T15:18:13;1.57;;;1.47;;
21624;SDS011;10974;51.034;3.744;2022-07-21T15:20:38;1.53;;;1.43;;
21624;SDS011;10974;51.034;3.744;2022-07-21T15:23:04;1.77;;;1.67;;